Time;durP1;ratioP1;P1;durP2;ratioP2;P2;SDS_P1;SDS_P2;PMS_P1;PMS_P2;Temp;Humidity;BMP_temperature;BMP_pressure;BME280_temperature;BME280_humidity;BME280_pressure;Samples;Min_cycle;Max_cycle;Signal;HPM_P1;HPM_P2
2022/12/28 00:01:32;;;;;;;13.50;5.68;;;;;;;;;;12839326;19;20446;-66
2022/12/28 00:05:49;;;;;;;13.60;6.05;;;;;;;;;;12849009;19;20006;-66
2022/12/28 00:10:06;;;;;;;17.80;7.38;;;;;;;;;;12847434;19;20047;-68
2022/12/28 00:14:23;;;;;;;17.10;7.15;;;;;;;;;;12848294;19;20462;-66
2022/12/28 00:18:40;;;;;;;15.35;6.53;;;;;;;;;;12848612;19;20021;-66
2022/12/28 00:22:58;;;;;;;13.10;6.18;;;;;;;;;;12846084;19;20355;-67
2022/12/28 00:27:16;;;;;;;13.90;6.78;;;;;;;;;;12844288;19;20310;-65
2022/12/28 00:31:33;;;;;;;16.70;7.85;;;;;;;;;;12847657;19;20021;-66
2022/12/28 00:35:54;;;;;;;19.10;7.72;;;;;;;;;;12848546;19;20354;-67
2022/12/28 00:40:11;;;;;;;15.80;6.68;;;;;;;;;;12843445;19;20434;-66
2022/12/28 00:44:34;;;;;;;13.27;6.28;;;;;;;;;;12846186;19;20017;-67
2022/12/28 00:48:51;;;;;;;11.35;6.03;;;;;;;;;;12844429;19;20447;-66
2022/12/28 00:53:09;;;;;;;20.55;8.48;;;;;;;;;;12844521;19;20014;-66
2022/12/28 00:57:26;;;;;;;20.38;9.18;;;;;;;;;;12845418;19;20010;-66
2022/12/28 01:01:43;;;;;;;17.27;7.85;;;;;;;;;;12843798;19;20475;-66
2022/12/28 01:06:05;;;;;;;18.25;7.72;;;;;;;;;;12845594;19;20336;-65
2022/12/28 01:10:22;;;;;;;15.60;6.00;;;;;;;;;;12844389;19;20430;-66
2022/12/28 01:14:39;;;;;;;16.45;6.35;;;;;;;;;;12843888;19;20438;-66
2022/12/28 01:19:00;;;;;;;12.68;6.55;;;;;;;;;;12844095;19;20437;-67
2022/12/28 01:23:17;;;;;;;13.80;6.28;;;;;;;;;;12842265;19;20014;-67
2022/12/28 01:27:34;;;;;;;11.23;5.82;;;;;;;;;;12841864;19;20304;-66
2022/12/28 01:31:51;;;;;;;12.38;5.13;;;;;;;;;;12844353;19;20541;-66
2022/12/28 01:36:14;;;;;;;12.17;5.53;;;;;;;;;;12840572;19;20434;-67
2022/12/28 01:40:31;;;;;;;12.60;4.90;;;;;;;;;;12841684;19;20325;-67
2022/12/28 01:44:51;;;;;;;12.43;4.90;;;;;;;;;;12844267;19;20430;-67
2022/12/28 01:49:38;;;;;;;25.33;10.75;;;;;;;;;;12842465;19;20336;-67
2022/12/28 01:53:58;;;;;;;18.15;7.72;;;;;;;;;;12840254;19;20430;-66
2022/12/28 01:58:23;;;;;;;13.98;6.53;;;;;;;;;;12841133;19;20467;-66
2022/12/28 02:02:50;;;;;;;12.88;6.20;;;;;;;;;;12840499;19;20014;-66
2022/12/28 02:07:07;;;;;;;10.77;5.85;;;;;;;;;;12839872;19;20422;-67
2022/12/28 02:11:25;;;;;;;10.60;5.47;;;;;;;;;;12841642;19;20473;-66
2022/12/28 02:15:43;;;;;;;10.63;5.27;;;;;;;;;;12808785;19;20427;-65
2022/12/28 02:20:01;;;;;;;13.90;6.28;;;;;;;;;;12841003;19;20011;-66
2022/12/28 02:24:48;;;;;;;11.45;5.20;;;;;;;;;;12837611;19;20477;-67
2022/12/28 02:29:33;;;;;;;11.50;4.95;;;;;;;;;;12838547;19;20074;-66
2022/12/28 02:34:07;;;;;;;11.50;5.47;;;;;;;;;;12840666;19;20010;-65
2022/12/28 02:38:40;;;;;;;8.50;4.53;;;;;;;;;;12840252;19;20066;-66
2022/12/28 02:43:00;;;;;;;9.48;4.97;;;;;;;;;;12839043;19;20463;-66
2022/12/28 02:52:06;;;;;;;12.48;5.65;;;;;;;;;;12840287;19;20285;-66
2022/12/28 02:56:48;;;;;;;8.80;5.10;;;;;;;;;;12839197;19;20434;-68
2022/12/28 03:01:17;;;;;;;10.05;4.88;;;;;;;;;;12839121;19;20446;-66
2022/12/28 03:10:50;;;;;;;10.60;5.70;;;;;;;;;;12839161;19;20013;-65
2022/12/28 03:15:28;;;;;;;12.18;6.03;;;;;;;;;;12838842;19;20003;-66
2022/12/28 03:34:05;;;;;;;10.20;4.82;;;;;;;;;;12835626;19;20434;-66
2022/12/28 03:38:56;;;;;;;13.35;4.80;;;;;;;;;;12835851;19;23670;-66
2022/12/28 03:43:41;;;;;;;8.73;4.28;;;;;;;;;;12835869;19;20019;-66
2022/12/28 03:48:01;;;;;;;9.68;4.00;;;;;;;;;;12837443;19;20018;-66
2022/12/28 03:52:18;;;;;;;11.80;5.22;;;;;;;;;;12833342;19;20454;-66
2022/12/28 03:56:46;;;;;;;7.55;4.57;;;;;;;;;;12834219;19;20424;-66
2022/12/28 04:01:04;;;;;;;7.97;4.22;;;;;;;;;;12834936;19;20350;-67
2022/12/28 04:05:21;;;;;;;9.90;4.55;;;;;;;;;;12836309;19;20438;-66
2022/12/28 04:09:38;;;;;;;11.00;5.03;;;;;;;;;;12839294;19;20422;-65
2022/12/28 04:13:55;;;;;;;9.43;4.88;;;;;;;;;;12837411;19;20010;-66
2022/12/28 04:18:12;;;;;;;9.30;4.57;;;;;;;;;;12820695;19;119817;-66
2022/12/28 04:22:29;;;;;;;7.53;3.60;;;;;;;;;;12832403;19;20466;-66
2022/12/28 04:26:46;;;;;;;13.07;4.65;;;;;;;;;;12835264;19;20358;-65
2022/12/28 04:31:06;;;;;;;;;;;;;;;;;;12835255;19;20462;-66
2022/12/28 04:35:23;;;;;;;9.27;4.18;;;;;;;;;;12834663;19;20326;-66
2022/12/28 04:39:40;;;;;;;9.73;5.00;;;;;;;;;;12833456;19;20443;-66
2022/12/28 04:44:12;;;;;;;9.65;4.50;;;;;;;;;;12832823;19;20546;-66
2022/12/28 04:48:30;;;;;;;12.73;4.43;;;;;;;;;;12841402;19;20035;-66
2022/12/28 04:52:46;;;;;;;9.88;4.43;;;;;;;;;;12846834;19;20421;-66
2022/12/28 04:57:03;;;;;;;8.30;4.55;;;;;;;;;;12844184;19;20462;-67
2022/12/28 05:01:21;;;;;;;8.77;4.93;;;;;;;;;;12845131;19;20426;-66
2022/12/28 05:05:38;;;;;;;8.50;4.00;;;;;;;;;;12844882;19;20340;-67
2022/12/28 05:09:55;;;;;;;10.73;4.15;;;;;;;;;;12848552;19;20006;-67
2022/12/28 05:14:12;;;;;;;11.85;4.40;;;;;;;;;;12843390;19;20046;-66
2022/12/28 05:18:29;;;;;;;9.15;4.95;;;;;;;;;;12844657;19;20410;-66
2022/12/28 05:22:46;;;;;;;13.57;5.40;;;;;;;;;;12844536;19;20450;-65
2022/12/28 05:27:03;;;;;;;25.75;10.10;;;;;;;;;;12842147;19;20006;-67
2022/12/28 05:31:22;;;;;;;37.03;16.70;;;;;;;;;;12843471;19;20058;-66
2022/12/28 05:35:39;;;;;;;51.75;23.13;;;;;;;;;;12843109;19;20288;-66
2022/12/28 05:39:56;;;;;;;37.08;16.30;;;;;;;;;;12843171;19;20320;-67
2022/12/28 05:44:13;;;;;;;26.90;9.60;;;;;;;;;;12840555;19;20325;-67
2022/12/28 05:48:34;;;;;;;28.50;10.00;;;;;;;;;;12843463;19;20355;-66
2022/12/28 05:52:51;;;;;;;25.38;9.02;;;;;;;;;;12843881;19;20023;-66
2022/12/28 05:57:08;;;;;;;21.52;7.20;;;;;;;;;;12841189;19;20469;-67
2022/12/28 06:01:33;;;;;;;20.40;6.40;;;;;;;;;;12841075;19;20422;-68
2022/12/28 06:05:50;;;;;;;20.90;7.95;;;;;;;;;;12842915;19;20427;-65
2022/12/28 06:10:07;;;;;;;19.58;7.55;;;;;;;;;;12841123;19;20018;-66
2022/12/28 06:14:25;;;;;;;15.85;6.68;;;;;;;;;;12841208;19;20299;-68
2022/12/28 06:18:42;;;;;;;15.93;5.57;;;;;;;;;;12841273;19;20438;-66
2022/12/28 06:22:59;;;;;;;13.02;6.28;;;;;;;;;;12838661;19;20308;-67
2022/12/28 06:27:16;;;;;;;17.05;5.88;;;;;;;;;;12840369;19;20452;-67
2022/12/28 06:31:38;;;;;;;15.10;6.22;;;;;;;;;;12840417;19;20010;-66
2022/12/28 06:35:56;;;;;;;43.03;18.60;;;;;;;;;;12840540;19;20463;-68
2022/12/28 06:40:13;;;;;;;37.87;15.93;;;;;;;;;;12838416;19;20084;-66
2022/12/28 06:44:30;;;;;;;44.07;19.00;;;;;;;;;;12839279;19;20415;-66
2022/12/28 06:48:48;;;;;;;56.42;16.48;;;;;;;;;;12838723;19;20040;-66
2022/12/28 06:53:05;;;;;;;48.85;14.25;;;;;;;;;;12838708;19;20470;-66
2022/12/28 06:57:21;;;;;;;31.20;10.02;;;;;;;;;;12838148;19;20483;-67
2022/12/28 07:01:43;;;;;;;33.40;9.30;;;;;;;;;;12837963;19;20358;-67
2022/12/28 07:06:02;;;;;;;36.58;8.65;;;;;;;;;;12838528;19;20043;-67
2022/12/28 07:10:19;;;;;;;22.67;7.15;;;;;;;;;;12835828;19;20457;-65
2022/12/28 07:14:36;;;;;;;19.88;5.75;;;;;;;;;;12838325;19;20367;-66
2022/12/28 07:18:54;;;;;;;13.70;4.78;;;;;;;;;;12839315;19;20462;-66
2022/12/28 07:23:11;;;;;;;10.57;3.92;;;;;;;;;;12836650;19;20011;-66
2022/12/28 07:27:28;;;;;;;10.35;4.47;;;;;;;;;;12838037;19;20011;-66
2022/12/28 07:31:45;;;;;;;13.85;5.00;;;;;;;;;;12837451;19;20466;-66
2022/12/28 07:36:09;;;;;;;10.25;4.47;;;;;;;;;;12835364;19;20010;-66
2022/12/28 07:40:26;;;;;;;9.45;4.85;;;;;;;;;;12835945;19;20552;-67
2022/12/28 07:44:44;;;;;;;5.70;3.57;;;;;;;;;;12836685;19;20473;-66
2022/12/28 07:49:05;;;;;;;11.93;4.13;;;;;;;;;;12835643;19;20366;-67
2022/12/28 07:53:22;;;;;;;9.88;4.45;;;;;;;;;;12837667;19;20615;-66
2022/12/28 07:57:39;;;;;;;10.95;4.03;;;;;;;;;;12835237;19;20003;-67
2022/12/28 08:01:57;;;;;;;8.60;4.45;;;;;;;;;;12835587;19;20470;-66
2022/12/28 08:06:18;;;;;;;11.07;4.77;;;;;;;;;;12834313;19;20495;-68
2022/12/28 08:10:35;;;;;;;14.23;5.00;;;;;;;;;;12835307;19;20478;-66
2022/12/28 08:14:52;;;;;;;7.63;4.05;;;;;;;;;;12835976;19;20434;-67
2022/12/28 08:19:11;;;;;;;12.07;5.75;;;;;;;;;;12834335;19;20031;-66
2022/12/28 08:23:30;;;;;;;11.75;5.80;;;;;;;;;;12843183;19;20021;-66
2022/12/28 08:27:47;;;;;;;13.48;6.82;;;;;;;;;;12847055;19;20336;-66
2022/12/28 08:32:04;;;;;;;19.27;8.80;;;;;;;;;;12846238;19;20452;-67
2022/12/28 08:36:23;;;;;;;17.25;8.90;;;;;;;;;;12846910;19;20463;-66
2022/12/28 08:40:40;;;;;;;19.20;9.35;;;;;;;;;;12845370;19;20434;-66
2022/12/28 08:44:57;;;;;;;21.15;10.55;;;;;;;;;;12845941;19;20430;-66
2022/12/28 08:49:14;;;;;;;28.58;11.93;;;;;;;;;;12845440;19;20414;-66
2022/12/28 08:53:32;;;;;;;28.40;12.10;;;;;;;;;;12845468;19;20438;-67
2022/12/28 08:57:49;;;;;;;28.20;13.60;;;;;;;;;;12845473;19;20422;-66
2022/12/28 09:02:06;;;;;;;33.33;16.67;;;;;;;;;;12844258;19;20438;-66
2022/12/28 09:06:29;;;;;;;33.17;14.65;;;;;;;;;;12845377;19;20350;-66
2022/12/28 09:10:46;;;;;;;104.95;37.40;;;;;;;;;;12844295;19;20047;-68
2022/12/28 09:15:04;;;;;;;100.78;35.28;;;;;;;;;;12843994;19;20495;-66
2022/12/28 09:19:21;;;;;;;108.27;42.03;;;;;;;;;;12843872;19;20356;-66
2022/12/28 09:23:39;;;;;;;112.87;40.40;;;;;;;;;;12846945;19;20513;-66
2022/12/28 09:27:56;;;;;;;61.58;24.88;;;;;;;;;;12842178;19;20014;-65
2022/12/28 09:32:15;;;;;;;67.43;25.13;;;;;;;;;;12842462;19;20018;-66
2022/12/28 09:36:39;;;;;;;47.08;20.15;;;;;;;;;;12842756;19;20418;-67
2022/12/28 09:40:57;;;;;;;38.10;16.77;;;;;;;;;;12841125;19;20430;-67
2022/12/28 09:45:20;;;;;;;43.83;19.88;;;;;;;;;;12840443;19;20438;-67
2022/12/28 09:49:56;;;;;;;36.78;17.70;;;;;;;;;;12842314;19;20371;-66
2022/12/28 09:54:13;;;;;;;39.63;17.73;;;;;;;;;;12840553;19;20003;-66
2022/12/28 09:58:32;;;;;;;26.83;13.95;;;;;;;;;;12842882;19;20390;-66
2022/12/28 10:03:19;;;;;;;30.80;13.05;;;;;;;;;;12841115;19;20657;-67
2022/12/28 10:07:36;;;;;;;26.33;13.00;;;;;;;;;;12841900;19;20427;-66
2022/12/28 10:11:54;;;;;;;32.13;14.63;;;;;;;;;;12839976;19;20438;-66
2022/12/28 10:16:19;;;;;;;29.97;15.23;;;;;;;;;;12840606;19;20022;-65
2022/12/28 10:20:36;;;;;;;27.42;11.55;;;;;;;;;;12840565;19;20739;-65
2022/12/28 10:24:53;;;;;;;15.13;8.68;;;;;;;;;;12840549;19;20427;-67
2022/12/28 10:29:22;;;;;;;25.65;12.25;;;;;;;;;;12840973;19;20355;-67
2022/12/28 10:33:47;;;;;;;18.88;10.48;;;;;;;;;;12840262;19;20433;-65
2022/12/28 10:38:22;;;;;;;32.75;17.67;;;;;;;;;;12838927;19;20463;-66
2022/12/28 10:42:42;;;;;;;50.22;23.90;;;;;;;;;;12839781;19;20011;-65
2022/12/28 10:47:04;;;;;;;33.67;17.05;;;;;;;;;;12837917;19;20429;-66
2022/12/28 10:51:26;;;;;;;35.47;15.05;;;;;;;;;;12837304;19;20074;-65
2022/12/28 10:55:43;;;;;;;29.20;13.65;;;;;;;;;;12837789;19;20459;-66
2022/12/28 11:00:21;;;;;;;40.72;21.15;;;;;;;;;;12838904;19;20332;-66
2022/12/28 11:04:52;;;;;;;37.55;21.50;;;;;;;;;;12838259;19;20010;-65
2022/12/28 11:09:34;;;;;;;33.20;16.90;;;;;;;;;;12837518;19;20291;-67
2022/12/28 11:14:23;;;;;;;21.73;11.23;;;;;;;;;;12838909;19;20332;-65
2022/12/28 11:18:40;;;;;;;20.95;10.48;;;;;;;;;;12837857;19;20718;-65
2022/12/28 11:22:57;;;;;;;35.23;17.43;;;;;;;;;;12836485;19;20461;-65
2022/12/28 11:27:18;;;;;;;35.00;15.57;;;;;;;;;;12838038;19;20010;-66
2022/12/28 11:32:00;;;;;;;30.67;14.05;;;;;;;;;;12836812;19;20429;-65
2022/12/28 11:36:21;;;;;;;31.38;14.82;;;;;;;;;;12834681;19;20006;-65
2022/12/28 11:40:49;;;;;;;35.75;16.23;;;;;;;;;;12834018;19;20465;-66
2022/12/28 11:45:15;;;;;;;25.80;11.35;;;;;;;;;;12834557;19;20014;-67
2022/12/28 11:49:34;;;;;;;28.08;14.85;;;;;;;;;;12835745;19;20018;-67
2022/12/28 11:54:22;;;;;;;29.90;13.25;;;;;;;;;;12837448;19;20477;-66
2022/12/28 11:58:39;;;;;;;;;;;;;;;;;;12847072;19;20314;-65
2022/12/28 12:03:00;;;;;;;31.63;12.85;;;;;;;;;;12847290;19;20331;-66
2022/12/28 12:07:43;;;;;;;25.60;11.20;;;;;;;;;;12846211;19;20018;-65
2022/12/28 12:12:23;;;;;;;15.90;8.48;;;;;;;;;;12848070;19;20439;-66
2022/12/28 12:16:50;;;;;;;15.50;7.63;;;;;;;;;;12847505;19;20414;-65
2022/12/28 12:21:09;;;;;;;19.65;7.43;;;;;;;;;;12845678;19;20014;-66
2022/12/28 12:25:45;;;;;;;17.55;7.57;;;;;;;;;;12847583;19;20010;-66
2022/12/28 12:30:17;;;;;;;18.95;7.82;;;;;;;;;;12846269;19;20011;-66
2022/12/28 12:34:57;;;;;;;30.95;12.05;;;;;;;;;;12846237;19;20006;-66
2022/12/28 12:39:45;;;;;;;61.92;25.02;;;;;;;;;;12843014;19;20467;-67
2022/12/28 12:44:13;;;;;;;15.55;8.45;;;;;;;;;;12844411;19;20339;-66
2022/12/28 12:49:00;;;;;;;13.60;6.10;;;;;;;;;;12845506;19;20405;-65
2022/12/28 12:54:11;;;;;;;16.60;8.93;;;;;;;;;;12844311;19;20003;-66
2022/12/28 12:59:23;;;;;;;13.55;5.68;;;;;;;;;;12842706;19;20421;-66
2022/12/28 13:03:51;;;;;;;10.55;5.50;;;;;;;;;;12843570;19;20470;-66
2022/12/28 13:08:38;;;;;;;14.43;6.22;;;;;;;;;;12840644;19;20433;-66
2022/12/28 13:12:59;;;;;;;15.05;5.97;;;;;;;;;;12844965;19;20308;-66
2022/12/28 13:17:20;;;;;;;11.30;6.07;;;;;;;;;;12843787;19;20011;-66
2022/12/28 13:21:44;;;;;;;46.03;23.17;;;;;;;;;;12844078;19;20486;-66
2022/12/28 13:26:02;;;;;;;30.35;17.65;;;;;;;;;;12844320;19;20316;-69
2022/12/28 13:30:21;;;;;;;47.55;26.27;;;;;;;;;;12843659;19;20332;-66
2022/12/28 13:34:39;;;;;;;34.95;15.00;;;;;;;;;;12842776;19;20414;-66
2022/12/28 13:39:03;;;;;;;;;;;;;;;;;;12843018;19;20316;-66
2022/12/28 13:44:07;;;;;;;11.27;6.78;;;;;;;;;;12841730;19;20202;-67
2022/12/28 13:48:25;;;;;;;39.40;14.88;;;;;;;;;;12841124;19;20426;-66
2022/12/28 13:52:58;;;;;;;72.68;25.27;;;;;;;;;;12843240;19;20105;-65
2022/12/28 13:57:16;;;;;;;40.88;14.82;;;;;;;;;;12838996;19;20562;-66
2022/12/28 14:01:54;;;;;;;49.70;20.42;;;;;;;;;;12839738;19;20045;-66
2022/12/28 14:06:17;;;;;;;15.60;9.13;;;;;;;;;;12841418;19;20475;-66
2022/12/28 14:10:35;;;;;;;26.10;13.85;;;;;;;;;;12841146;19;20043;-66
2022/12/28 14:14:52;;;;;;;9.07;5.45;;;;;;;;;;12839578;19;20011;-67
2022/12/28 14:19:10;;;;;;;9.50;5.63;;;;;;;;;;12836651;19;20311;-66
2022/12/28 14:23:31;;;;;;;11.60;7.22;;;;;;;;;;12838217;19;20051;-67
2022/12/28 14:28:05;;;;;;;10.80;6.32;;;;;;;;;;12841178;19;20006;-65
2022/12/28 14:32:22;;;;;;;10.55;6.13;;;;;;;;;;12837851;19;20383;-66
2022/12/28 14:36:48;;;;;;;9.77;5.57;;;;;;;;;;12838401;19;20451;-66
2022/12/28 14:41:05;;;;;;;17.25;8.48;;;;;;;;;;12840259;19;20283;-65
2022/12/28 14:45:38;;;;;;;10.53;7.20;;;;;;;;;;12840108;19;20438;-65
2022/12/28 14:50:19;;;;;;;17.52;10.10;;;;;;;;;;12838978;19;20315;-66
2022/12/28 14:55:18;;;;;;;20.35;11.43;;;;;;;;;;12838562;19;20505;-66
2022/12/28 14:59:38;;;;;;;23.73;12.40;;;;;;;;;;12838870;19;20423;-66
2022/12/28 15:03:57;;;;;;;22.42;12.85;;;;;;;;;;12836862;19;20419;-66
2022/12/28 15:08:14;;;;;;;18.35;8.98;;;;;;;;;;12835605;19;20331;-66
2022/12/28 15:12:34;;;;;;;27.02;14.88;;;;;;;;;;12838588;19;20481;-66
2022/12/28 15:16:51;;;;;;;53.22;28.50;;;;;;;;;;12838712;19;20450;-65
2022/12/28 15:21:11;;;;;;;31.63;14.98;;;;;;;;;;12836589;19;20435;-65
2022/12/28 15:25:32;;;;;;;28.35;11.95;;;;;;;;;;12836974;19;20434;-65
2022/12/28 15:29:49;;;;;;;18.90;10.52;;;;;;;;;;12836448;19;20014;-66
2022/12/28 15:34:25;;;;;;;127.30;63.97;;;;;;;;;;12837595;19;20007;-66
2022/12/28 15:38:42;;;;;;;43.45;25.13;;;;;;;;;;12835731;19;20034;-65
2022/12/28 15:43:02;;;;;;;30.95;17.92;;;;;;;;;;12835668;19;20441;-66
2022/12/28 15:47:19;;;;;;;36.92;20.30;;;;;;;;;;12836585;19;20003;-66
2022/12/28 15:51:36;;;;;;;41.65;22.17;;;;;;;;;;12837330;19;20371;-65
2022/12/28 15:55:59;;;;;;;47.38;21.15;;;;;;;;;;12836428;19;20019;-65
2022/12/28 16:00:17;;;;;;;29.83;14.00;;;;;;;;;;12832547;19;20002;-66
2022/12/28 16:04:34;;;;;;;31.85;17.67;;;;;;;;;;12836423;19;20015;-66
2022/12/28 16:08:53;;;;;;;34.92;15.60;;;;;;;;;;12835624;19;20426;-65
2022/12/28 16:13:11;;;;;;;41.53;21.67;;;;;;;;;;12833968;19;20352;-66
2022/12/28 16:17:27;;;;;;;27.55;15.18;;;;;;;;;;12835727;19;20006;-65
2022/12/28 16:21:47;;;;;;;39.72;20.58;;;;;;;;;;12834924;19;20439;-65
2022/12/28 16:26:05;;;;;;;30.90;16.10;;;;;;;;;;12834604;19;20442;-66
2022/12/28 16:30:24;;;;;;;119.07;47.90;;;;;;;;;;12833719;19;20508;-68
2022/12/28 16:34:41;;;;;;;72.90;28.60;;;;;;;;;;12834336;19;20437;-69
2022/12/28 16:38:58;;;;;;;83.22;54.00;;;;;;;;;;12833712;19;20466;-65
2022/12/28 16:43:17;;;;;;;62.63;36.47;;;;;;;;;;12837229;19;20378;-65
2022/12/28 16:47:34;;;;;;;54.30;34.25;;;;;;;;;;12846134;19;20364;-65
2022/12/28 16:51:59;;;;;;;44.08;25.63;;;;;;;;;;12844462;19;20477;-66
2022/12/28 16:56:17;;;;;;;42.60;25.67;;;;;;;;;;12844546;19;20039;-66
2022/12/28 17:00:34;;;;;;;46.80;20.65;;;;;;;;;;12845268;19;20469;-66
2022/12/28 17:04:51;;;;;;;29.80;14.40;;;;;;;;;;12843900;19;20389;-66
2022/12/28 17:09:08;;;;;;;33.30;16.48;;;;;;;;;;12846527;19;20010;-66
2022/12/28 17:13:25;;;;;;;44.20;23.23;;;;;;;;;;12844674;19;20493;-65
2022/12/28 17:17:43;;;;;;;55.67;25.90;;;;;;;;;;12845371;19;20223;-66
2022/12/28 17:22:00;;;;;;;58.87;23.43;;;;;;;;;;12843980;19;20441;-66
2022/12/28 17:26:17;;;;;;;77.43;29.75;;;;;;;;;;12841839;19;20006;-66
2022/12/28 17:30:35;;;;;;;60.83;24.67;;;;;;;;;;12844093;19;20326;-67
2022/12/28 17:34:52;;;;;;;66.80;26.80;;;;;;;;;;12844830;19;20347;-65
2022/12/28 17:39:09;;;;;;;126.23;55.13;;;;;;;;;;12840865;19;20438;-66
2022/12/28 17:43:27;;;;;;;59.72;29.80;;;;;;;;;;12843642;19;20470;-65
2022/12/28 17:47:44;;;;;;;65.28;30.23;;;;;;;;;;12843410;19;20328;-66
2022/12/28 17:52:02;;;;;;;66.32;27.13;;;;;;;;;;12842116;19;20427;-65
2022/12/28 17:56:19;;;;;;;33.38;16.48;;;;;;;;;;12841118;19;20014;-66
2022/12/28 18:00:36;;;;;;;26.27;12.32;;;;;;;;;;12841393;19;20451;-66
2022/12/28 18:04:53;;;;;;;23.20;11.25;;;;;;;;;;12842615;19;20353;-65
2022/12/28 18:09:10;;;;;;;40.83;14.40;;;;;;;;;;12840960;19;20430;-66
2022/12/28 18:13:27;;;;;;;40.70;17.77;;;;;;;;;;12841705;19;20459;-66
2022/12/28 18:17:44;;;;;;;32.00;16.40;;;;;;;;;;12841720;19;20011;-66
2022/12/28 18:22:02;;;;;;;30.98;16.10;;;;;;;;;;12840096;19;20437;-67
2022/12/28 18:26:22;;;;;;;90.63;35.30;;;;;;;;;;12839611;19;20467;-66
2022/12/28 18:30:39;;;;;;;61.75;24.50;;;;;;;;;;12841825;19;20705;-66
2022/12/28 18:34:58;;;;;;;81.53;31.67;;;;;;;;;;12840122;19;20299;-66
2022/12/28 18:39:15;;;;;;;92.88;33.35;;;;;;;;;;12839178;19;20314;-66
2022/12/28 18:43:32;;;;;;;71.20;27.80;;;;;;;;;;12838247;19;20434;-65
2022/12/28 18:47:49;;;;;;;53.15;23.23;;;;;;;;;;12839787;19;20039;-66
2022/12/28 18:52:06;;;;;;;55.17;23.15;;;;;;;;;;12838079;19;20328;-66
2022/12/28 18:56:23;;;;;;;49.13;20.47;;;;;;;;;;12839040;19;20020;-65
2022/12/28 19:00:40;;;;;;;61.60;26.20;;;;;;;;;;12839141;19;20343;-65
2022/12/28 19:04:57;;;;;;;71.95;26.42;;;;;;;;;;12835972;19;20307;-65
2022/12/28 19:09:14;;;;;;;74.80;33.67;;;;;;;;;;12837633;19;20445;-65
2022/12/28 19:13:34;;;;;;;77.88;35.65;;;;;;;;;;12837714;19;20035;-66
2022/12/28 19:17:51;;;;;;;72.57;30.05;;;;;;;;;;12838019;19;20442;-66
2022/12/28 19:22:08;;;;;;;72.28;30.33;;;;;;;;;;12836874;19;20336;-65
2022/12/28 19:26:25;;;;;;;56.67;25.40;;;;;;;;;;12836554;19;20439;-65
2022/12/28 19:30:42;;;;;;;76.70;29.83;;;;;;;;;;12838332;19;20438;-65
2022/12/28 19:34:59;;;;;;;125.53;44.38;;;;;;;;;;12836467;19;20319;-66
2022/12/28 19:39:16;;;;;;;113.30;41.78;;;;;;;;;;12835362;19;20028;-65
2022/12/28 19:43:34;;;;;;;108.00;41.88;;;;;;;;;;12836640;19;20449;-65
2022/12/28 19:47:51;;;;;;;116.05;46.63;;;;;;;;;;12833715;19;20459;-66
2022/12/28 19:52:09;;;;;;;117.10;43.65;;;;;;;;;;12837951;19;20520;-65
2022/12/28 19:56:26;;;;;;;108.50;43.60;;;;;;;;;;12833956;19;20457;-65
2022/12/28 20:00:43;;;;;;;100.00;39.70;;;;;;;;;;12836091;19;20450;-65
2022/12/28 20:05:00;;;;;;;81.82;35.47;;;;;;;;;;12832415;19;20309;-66
2022/12/28 20:09:18;;;;;;;83.22;34.03;;;;;;;;;;12834843;19;20439;-66
2022/12/28 20:13:34;;;;;;;68.85;32.88;;;;;;;;;;12835634;19;20468;-65
2022/12/28 20:17:52;;;;;;;70.85;30.40;;;;;;;;;;12841836;19;20007;-66
2022/12/28 20:22:09;;;;;;;57.25;26.73;;;;;;;;;;12846761;19;20434;-65
2022/12/28 20:26:27;;;;;;;50.35;24.30;;;;;;;;;;12846413;19;20022;-66
2022/12/28 20:30:48;;;;;;;49.92;22.83;;;;;;;;;;12847594;19;20378;-65
2022/12/28 20:35:06;;;;;;;49.10;21.35;;;;;;;;;;12845405;19;20031;-66
2022/12/28 20:39:23;;;;;;;37.47;19.23;;;;;;;;;;12845334;19;20031;-66
2022/12/28 20:43:40;;;;;;;38.28;18.67;;;;;;;;;;12845644;19;20025;-65
2022/12/28 20:47:57;;;;;;;34.83;18.15;;;;;;;;;;12845840;19;20420;-66
2022/12/28 20:52:14;;;;;;;35.75;17.52;;;;;;;;;;12845348;19;20320;-65
2022/12/28 20:56:33;;;;;;;43.03;20.88;;;;;;;;;;12845387;19;20182;-65
2022/12/28 21:00:50;;;;;;;46.60;21.30;;;;;;;;;;12845707;19;20418;-67
2022/12/28 21:05:08;;;;;;;41.88;20.55;;;;;;;;;;12843328;19;20011;-66
2022/12/28 21:09:25;;;;;;;36.20;15.67;;;;;;;;;;12845731;19;20321;-66
2022/12/28 21:13:42;;;;;;;29.33;12.43;;;;;;;;;;12845031;19;20375;-65
2022/12/28 21:18:01;;;;;;;29.63;14.13;;;;;;;;;;12843872;19;20015;-65
2022/12/28 21:22:18;;;;;;;30.95;12.40;;;;;;;;;;12844554;19;20438;-65
2022/12/28 21:26:36;;;;;;;27.83;11.75;;;;;;;;;;12843662;19;20019;-65
2022/12/28 21:30:54;;;;;;;20.50;10.73;;;;;;;;;;12842945;19;20445;-65
2022/12/28 21:35:11;;;;;;;28.05;11.73;;;;;;;;;;12842248;19;20026;-67
2022/12/28 21:39:28;;;;;;;23.45;9.82;;;;;;;;;;12842542;19;20474;-66
2022/12/28 21:43:45;;;;;;;26.38;11.73;;;;;;;;;;12843210;19;20418;-66
2022/12/28 21:48:03;;;;;;;29.20;12.50;;;;;;;;;;12841687;19;20374;-67
2022/12/28 21:52:20;;;;;;;28.10;12.25;;;;;;;;;;12840902;19;20324;-66
2022/12/28 21:56:38;;;;;;;26.25;12.43;;;;;;;;;;12842502;19;20030;-65
2022/12/28 22:14:39;;;;;;;29.10;11.90;;;;;;;;;;12841166;19;20011;-66
2022/12/28 22:18:56;;;;;;;27.40;11.73;;;;;;;;;;12842263;19;20455;-65
2022/12/28 22:23:19;;;;;;;29.10;11.18;;;;;;;;;;12839763;19;20422;-65
2022/12/28 22:27:36;;;;;;;29.15;12.30;;;;;;;;;;12841412;19;20010;-67
2022/12/28 22:31:53;;;;;;;39.00;15.38;;;;;;;;;;12841690;19;20342;-65
2022/12/28 22:36:15;;;;;;;32.33;13.52;;;;;;;;;;12839767;19;20308;-65
2022/12/28 22:40:32;;;;;;;24.00;11.32;;;;;;;;;;12837088;19;20007;-67
2022/12/28 22:44:49;;;;;;;31.02;12.25;;;;;;;;;;12841519;19;20491;-66
2022/12/28 22:49:07;;;;;;;26.02;11.80;;;;;;;;;;12838414;19;20007;-65
2022/12/28 22:53:23;;;;;;;30.15;13.10;;;;;;;;;;12839831;19;20430;-67
2022/12/28 22:57:41;;;;;;;28.42;12.52;;;;;;;;;;12839061;19;20299;-65
2022/12/28 23:01:58;;;;;;;30.40;12.60;;;;;;;;;;12839636;19;20413;-67
2022/12/28 23:06:18;;;;;;;32.25;14.85;;;;;;;;;;12837880;19;20438;-67
2022/12/28 23:10:35;;;;;;;27.05;12.02;;;;;;;;;;12838794;19;20331;-67
2022/12/28 23:28:47;;;;;;;16.75;8.13;;;;;;;;;;12837773;19;20431;-65
2022/12/28 23:33:05;;;;;;;17.98;8.18;;;;;;;;;;12837222;19;20350;-66
2022/12/28 23:37:22;;;;;;;21.45;7.82;;;;;;;;;;12837106;19;20434;-65
2022/12/28 23:41:48;;;;;;;17.42;8.40;;;;;;;;;;12835830;19;20434;-67
2022/12/28 23:46:05;;;;;;;20.38;8.05;;;;;;;;;;12838106;19;20035;-65
2022/12/28 23:50:22;;;;;;;21.52;8.32;;;;;;;;;;12836342;19;20364;-65
2022/12/28 23:54:39;;;;;;;17.35;8.13;;;;;;;;;;12835628;19;20014;-65
2022/12/28 23:58:56;;;;;;;22.23;9.35;;;;;;;;;;12836074;19;20010;-66
